BOI weather

Boise Air Terminal/Gowen Field
Boise, Idaho, United States

Public forecast

Using degrees Fahrenheit for public forecast. Weather courtesy of forecast.io.

METAR (pilot weather report)

Retrieved 2019/05/22 15:53 UTC (24 minutes ago):

KBOI 221553Z 30004KT 10SM BKN080 11/07 A2971 RMK AO2 SLP053 T01110067

TAF (pilot weather forecast)

Retrieved 2019/05/22 12:24 UTC (4 hours ago):

TAF KBOI 221122Z 2212/2312 30008KT P6SM VCSH SCT040 OVC100 FM222000 29015G25KT P6SM -SHRA OVC050 FM230200 11010KT P6SM VCSH BKN060 FM230600 24009KT P6SM OVC100